sensor_id;sensor_type;location;lat;lon;timestamp;P1;durP1;ratioP1;P2;durP2;ratioP2
62056;SDS011;48016;50.284;18.860;2023-12-20T00:01:22;16.90;;;10.40;;
62056;SDS011;48016;50.284;18.860;2023-12-20T00:03:48;18.60;;;10.30;;
62056;SDS011;48016;50.284;18.860;2023-12-20T00:06:15;17.00;;;10.40;;
62056;SDS011;48016;50.284;18.860;2023-12-20T00:08:42;17.70;;;11.10;;
62056;SDS011;48016;50.284;18.860;2023-12-20T00:11:08;18.20;;;11.10;;
62056;SDS011;48016;50.284;18.860;2023-12-20T00:13:35;15.50;;;9.70;;
62056;SDS011;48016;50.284;18.860;2023-12-20T00:16:01;14.70;;;9.70;;
62056;SDS011;48016;50.284;18.860;2023-12-20T00:18:28;20.00;;;12.00;;
62056;SDS011;48016;50.284;18.860;2023-12-20T00:20:54;21.00;;;12.60;;
62056;SDS011;48016;50.284;18.860;2023-12-20T00:23:21;22.60;;;12.00;;
62056;SDS011;48016;50.284;18.860;2023-12-20T00:25:49;16.10;;;9.80;;
62056;SDS011;48016;50.284;18.860;2023-12-20T00:28:16;16.60;;;9.50;;
62056;SDS011;48016;50.284;18.860;2023-12-20T00:30:42;15.30;;;8.70;;
62056;SDS011;48016;50.284;18.860;2023-12-20T00:33:09;15.80;;;8.60;;
62056;SDS011;48016;50.284;18.860;2023-12-20T00:35:35;16.60;;;10.10;;
62056;SDS011;48016;50.284;18.860;2023-12-20T00:38:02;14.90;;;9.20;;
62056;SDS011;48016;50.284;18.860;2023-12-20T00:40:29;17.20;;;9.50;;
62056;SDS011;48016;50.284;18.860;2023-12-20T00:42:55;15.10;;;9.10;;
62056;SDS011;48016;50.284;18.860;2023-12-20T00:45:22;16.50;;;9.30;;
62056;SDS011;48016;50.284;18.860;2023-12-20T00:47:48;16.10;;;9.50;;
62056;SDS011;48016;50.284;18.860;2023-12-20T00:50:15;16.30;;;9.20;;
62056;SDS011;48016;50.284;18.860;2023-12-20T00:52:42;14.80;;;9.40;;
62056;SDS011;48016;50.284;18.860;2023-12-20T00:55:08;16.30;;;9.50;;
62056;SDS011;48016;50.284;18.860;2023-12-20T00:57:35;16.80;;;9.00;;
62056;SDS011;48016;50.284;18.860;2023-12-20T01:00:02;17.30;;;9.40;;
62056;SDS011;48016;50.284;18.860;2023-12-20T01:02:28;14.70;;;8.50;;
62056;SDS011;48016;50.284;18.860;2023-12-20T01:04:55;14.10;;;7.80;;
62056;SDS011;48016;50.284;18.860;2023-12-20T01:07:22;11.80;;;6.90;;
62056;SDS011;48016;50.284;18.860;2023-12-20T01:09:48;11.40;;;7.60;;
62056;SDS011;48016;50.284;18.860;2023-12-20T01:12:15;11.70;;;6.90;;
62056;SDS011;48016;50.284;18.860;2023-12-20T01:14:41;11.70;;;7.10;;
62056;SDS011;48016;50.284;18.860;2023-12-20T01:17:08;12.80;;;6.50;;
62056;SDS011;48016;50.284;18.860;2023-12-20T01:19:35;12.10;;;6.80;;
62056;SDS011;48016;50.284;18.860;2023-12-20T01:22:02;11.30;;;6.60;;
62056;SDS011;48016;50.284;18.860;2023-12-20T01:24:29;11.70;;;7.00;;
62056;SDS011;48016;50.284;18.860;2023-12-20T01:26:56;12.00;;;7.30;;
62056;SDS011;48016;50.284;18.860;2023-12-20T01:29:22;12.30;;;6.90;;
62056;SDS011;48016;50.284;18.860;2023-12-20T01:31:49;14.70;;;7.90;;
62056;SDS011;48016;50.284;18.860;2023-12-20T01:34:16;12.70;;;7.50;;
62056;SDS011;48016;50.284;18.860;2023-12-20T01:36:43;10.40;;;6.30;;
62056;SDS011;48016;50.284;18.860;2023-12-20T01:39:09;12.00;;;6.40;;
62056;SDS011;48016;50.284;18.860;2023-12-20T01:41:36;10.70;;;6.10;;
62056;SDS011;48016;50.284;18.860;2023-12-20T01:44:02;8.80;;;6.30;;
62056;SDS011;48016;50.284;18.860;2023-12-20T01:48:56;8.60;;;5.90;;
62056;SDS011;48016;50.284;18.860;2023-12-20T01:51:23;11.00;;;6.20;;
62056;SDS011;48016;50.284;18.860;2023-12-20T01:53:54;12.60;;;6.30;;
62056;SDS011;48016;50.284;18.860;2023-12-20T01:56:21;13.00;;;7.00;;
62056;SDS011;48016;50.284;18.860;2023-12-20T01:58:48;10.10;;;7.20;;
62056;SDS011;48016;50.284;18.860;2023-12-20T02:01:15;13.60;;;7.00;;
62056;SDS011;48016;50.284;18.860;2023-12-20T02:03:42;10.70;;;6.30;;
62056;SDS011;48016;50.284;18.860;2023-12-20T02:06:09;9.80;;;6.30;;
62056;SDS011;48016;50.284;18.860;2023-12-20T02:08:36;13.90;;;7.10;;
62056;SDS011;48016;50.284;18.860;2023-12-20T02:11:02;10.80;;;6.80;;
62056;SDS011;48016;50.284;18.860;2023-12-20T02:13:30;12.30;;;7.10;;
62056;SDS011;48016;50.284;18.860;2023-12-20T02:15:57;12.20;;;6.80;;
62056;SDS011;48016;50.284;18.860;2023-12-20T02:18:23;12.40;;;7.20;;
62056;SDS011;48016;50.284;18.860;2023-12-20T02:20:50;9.50;;;6.60;;
62056;SDS011;48016;50.284;18.860;2023-12-20T02:23:16;11.40;;;7.20;;
62056;SDS011;48016;50.284;18.860;2023-12-20T02:25:43;10.20;;;6.80;;
62056;SDS011;48016;50.284;18.860;2023-12-20T02:28:10;11.40;;;6.80;;
62056;SDS011;48016;50.284;18.860;2023-12-20T02:30:36;11.90;;;7.00;;
62056;SDS011;48016;50.284;18.860;2023-12-20T02:33:03;11.60;;;7.10;;
62056;SDS011;48016;50.284;18.860;2023-12-20T02:35:35;11.90;;;6.90;;
62056;SDS011;48016;50.284;18.860;2023-12-20T02:38:01;14.70;;;8.30;;
62056;SDS011;48016;50.284;18.860;2023-12-20T02:40:28;14.20;;;7.60;;
62056;SDS011;48016;50.284;18.860;2023-12-20T02:42:54;11.80;;;7.70;;
62056;SDS011;48016;50.284;18.860;2023-12-20T02:45:21;13.60;;;7.50;;
62056;SDS011;48016;50.284;18.860;2023-12-20T02:47:48;14.40;;;8.40;;
62056;SDS011;48016;50.284;18.860;2023-12-20T02:50:14;12.80;;;7.60;;
62056;SDS011;48016;50.284;18.860;2023-12-20T02:52:42;13.00;;;8.10;;
62056;SDS011;48016;50.284;18.860;2023-12-20T02:55:10;13.60;;;8.20;;
62056;SDS011;48016;50.284;18.860;2023-12-20T02:57:37;14.60;;;8.70;;
62056;SDS011;48016;50.284;18.860;2023-12-20T03:00:08;13.00;;;8.90;;
62056;SDS011;48016;50.284;18.860;2023-12-20T03:02:36;15.20;;;8.60;;
62056;SDS011;48016;50.284;18.860;2023-12-20T03:05:03;14.50;;;8.60;;
62056;SDS011;48016;50.284;18.860;2023-12-20T03:07:29;12.60;;;9.00;;
62056;SDS011;48016;50.284;18.860;2023-12-20T03:09:56;15.00;;;9.40;;
62056;SDS011;48016;50.284;18.860;2023-12-20T03:12:23;15.70;;;9.00;;
62056;SDS011;48016;50.284;18.860;2023-12-20T03:14:49;15.40;;;10.10;;
62056;SDS011;48016;50.284;18.860;2023-12-20T03:17:16;15.70;;;9.30;;
62056;SDS011;48016;50.284;18.860;2023-12-20T03:19:42;14.50;;;9.30;;
62056;SDS011;48016;50.284;18.860;2023-12-20T03:22:09;15.30;;;9.30;;
62056;SDS011;48016;50.284;18.860;2023-12-20T03:24:35;16.60;;;9.90;;
62056;SDS011;48016;50.284;18.860;2023-12-20T03:27:02;15.60;;;9.60;;
62056;SDS011;48016;50.284;18.860;2023-12-20T03:29:29;17.80;;;10.60;;
62056;SDS011;48016;50.284;18.860;2023-12-20T03:31:55;15.80;;;9.80;;
62056;SDS011;48016;50.284;18.860;2023-12-20T03:34:22;16.00;;;10.10;;
62056;SDS011;48016;50.284;18.860;2023-12-20T03:36:48;15.00;;;9.80;;
62056;SDS011;48016;50.284;18.860;2023-12-20T03:39:15;15.30;;;10.20;;
62056;SDS011;48016;50.284;18.860;2023-12-20T03:41:41;15.50;;;10.80;;
62056;SDS011;48016;50.284;18.860;2023-12-20T03:44:08;16.60;;;10.60;;
62056;SDS011;48016;50.284;18.860;2023-12-20T03:46:35;18.70;;;10.90;;
62056;SDS011;48016;50.284;18.860;2023-12-20T03:49:01;18.80;;;11.20;;
62056;SDS011;48016;50.284;18.860;2023-12-20T03:51:28;18.40;;;11.10;;
62056;SDS011;48016;50.284;18.860;2023-12-20T03:53:54;19.60;;;12.50;;
62056;SDS011;48016;50.284;18.860;2023-12-20T03:56:21;19.30;;;12.10;;
62056;SDS011;48016;50.284;18.860;2023-12-20T03:58:47;18.90;;;12.00;;
62056;SDS011;48016;50.284;18.860;2023-12-20T04:01:14;22.40;;;12.90;;
62056;SDS011;48016;50.284;18.860;2023-12-20T04:03:40;24.40;;;15.40;;
62056;SDS011;48016;50.284;18.860;2023-12-20T04:06:07;23.50;;;14.80;;
62056;SDS011;48016;50.284;18.860;2023-12-20T04:08:33;27.20;;;17.00;;
62056;SDS011;48016;50.284;18.860;2023-12-20T04:11:00;22.80;;;14.90;;
62056;SDS011;48016;50.284;18.860;2023-12-20T04:13:26;23.60;;;14.00;;
62056;SDS011;48016;50.284;18.860;2023-12-20T04:15:53;23.10;;;13.60;;
62056;SDS011;48016;50.284;18.860;2023-12-20T04:18:19;20.50;;;13.60;;
62056;SDS011;48016;50.284;18.860;2023-12-20T04:20:46;21.90;;;13.00;;
62056;SDS011;48016;50.284;18.860;2023-12-20T04:23:13;20.80;;;13.80;;
62056;SDS011;48016;50.284;18.860;2023-12-20T04:25:39;23.40;;;14.70;;
62056;SDS011;48016;50.284;18.860;2023-12-20T04:28:06;23.40;;;14.30;;
62056;SDS011;48016;50.284;18.860;2023-12-20T04:30:33;24.60;;;15.20;;
62056;SDS011;48016;50.284;18.860;2023-12-20T04:32:59;25.40;;;16.60;;
62056;SDS011;48016;50.284;18.860;2023-12-20T04:35:26;22.80;;;16.10;;
62056;SDS011;48016;50.284;18.860;2023-12-20T04:37:52;22.90;;;15.40;;
62056;SDS011;48016;50.284;18.860;2023-12-20T04:40:19;23.30;;;15.20;;
62056;SDS011;48016;50.284;18.860;2023-12-20T04:42:46;23.60;;;15.70;;
62056;SDS011;48016;50.284;18.860;2023-12-20T04:45:13;20.30;;;14.10;;
62056;SDS011;48016;50.284;18.860;2023-12-20T04:47:42;19.80;;;13.70;;
62056;SDS011;48016;50.284;18.860;2023-12-20T04:50:08;20.50;;;13.80;;
62056;SDS011;48016;50.284;18.860;2023-12-20T04:52:36;20.40;;;14.70;;
62056;SDS011;48016;50.284;18.860;2023-12-20T04:55:02;26.10;;;16.30;;
62056;SDS011;48016;50.284;18.860;2023-12-20T04:57:29;28.30;;;15.90;;
62056;SDS011;48016;50.284;18.860;2023-12-20T04:59:55;24.80;;;14.30;;
62056;SDS011;48016;50.284;18.860;2023-12-20T05:02:22;22.30;;;15.30;;
62056;SDS011;48016;50.284;18.860;2023-12-20T05:04:49;20.60;;;14.40;;
62056;SDS011;48016;50.284;18.860;2023-12-20T05:07:15;23.40;;;15.00;;
62056;SDS011;48016;50.284;18.860;2023-12-20T05:09:42;24.50;;;15.70;;
62056;SDS011;48016;50.284;18.860;2023-12-20T05:12:09;19.70;;;15.00;;
62056;SDS011;48016;50.284;18.860;2023-12-20T05:14:35;23.60;;;15.30;;
62056;SDS011;48016;50.284;18.860;2023-12-20T05:17:02;22.70;;;15.20;;
62056;SDS011;48016;50.284;18.860;2023-12-20T05:19:29;27.60;;;17.40;;
62056;SDS011;48016;50.284;18.860;2023-12-20T05:21:56;24.00;;;15.90;;
62056;SDS011;48016;50.284;18.860;2023-12-20T05:24:22;26.60;;;16.40;;
62056;SDS011;48016;50.284;18.860;2023-12-20T05:26:49;31.80;;;18.10;;
62056;SDS011;48016;50.284;18.860;2023-12-20T05:29:15;28.10;;;16.50;;
62056;SDS011;48016;50.284;18.860;2023-12-20T05:31:43;30.40;;;18.70;;
62056;SDS011;48016;50.284;18.860;2023-12-20T05:34:09;29.80;;;18.70;;
62056;SDS011;48016;50.284;18.860;2023-12-20T05:36:36;28.70;;;17.70;;
62056;SDS011;48016;50.284;18.860;2023-12-20T05:39:03;29.90;;;18.10;;
62056;SDS011;48016;50.284;18.860;2023-12-20T05:41:30;28.60;;;16.70;;
62056;SDS011;48016;50.284;18.860;2023-12-20T05:43:57;25.60;;;16.60;;
62056;SDS011;48016;50.284;18.860;2023-12-20T05:46:24;28.90;;;16.90;;
62056;SDS011;48016;50.284;18.860;2023-12-20T05:48:51;27.00;;;17.00;;
62056;SDS011;48016;50.284;18.860;2023-12-20T05:51:18;32.00;;;17.60;;
62056;SDS011;48016;50.284;18.860;2023-12-20T05:53:44;27.10;;;16.50;;
62056;SDS011;48016;50.284;18.860;2023-12-20T05:56:11;25.70;;;16.30;;
62056;SDS011;48016;50.284;18.860;2023-12-20T05:58:38;26.40;;;17.40;;
62056;SDS011;48016;50.284;18.860;2023-12-20T06:01:06;27.10;;;17.40;;
62056;SDS011;48016;50.284;18.860;2023-12-20T06:03:34;30.10;;;19.50;;
62056;SDS011;48016;50.284;18.860;2023-12-20T06:06:05;27.50;;;18.50;;
62056;SDS011;48016;50.284;18.860;2023-12-20T06:08:34;31.90;;;20.10;;
62056;SDS011;48016;50.284;18.860;2023-12-20T06:11:02;32.20;;;19.70;;
62056;SDS011;48016;50.284;18.860;2023-12-20T06:13:28;34.60;;;21.20;;
62056;SDS011;48016;50.284;18.860;2023-12-20T06:15:55;32.10;;;21.70;;
62056;SDS011;48016;50.284;18.860;2023-12-20T06:18:22;33.30;;;22.10;;
62056;SDS011;48016;50.284;18.860;2023-12-20T06:20:48;36.40;;;22.80;;
62056;SDS011;48016;50.284;18.860;2023-12-20T06:23:15;38.70;;;25.40;;
62056;SDS011;48016;50.284;18.860;2023-12-20T06:25:41;42.70;;;26.00;;
62056;SDS011;48016;50.284;18.860;2023-12-20T06:28:08;45.10;;;25.70;;
62056;SDS011;48016;50.284;18.860;2023-12-20T06:30:36;43.70;;;22.90;;
62056;SDS011;48016;50.284;18.860;2023-12-20T06:33:03;37.20;;;22.00;;
62056;SDS011;48016;50.284;18.860;2023-12-20T06:35:29;30.20;;;19.40;;
62056;SDS011;48016;50.284;18.860;2023-12-20T06:37:56;28.40;;;19.00;;
62056;SDS011;48016;50.284;18.860;2023-12-20T06:40:22;31.40;;;19.00;;
62056;SDS011;48016;50.284;18.860;2023-12-20T06:42:49;33.80;;;19.20;;
62056;SDS011;48016;50.284;18.860;2023-12-20T06:45:15;29.70;;;18.40;;
62056;SDS011;48016;50.284;18.860;2023-12-20T06:47:42;31.80;;;18.70;;
62056;SDS011;48016;50.284;18.860;2023-12-20T06:50:09;30.20;;;18.50;;
62056;SDS011;48016;50.284;18.860;2023-12-20T06:52:35;28.90;;;18.80;;
62056;SDS011;48016;50.284;18.860;2023-12-20T06:55:02;33.00;;;19.30;;
62056;SDS011;48016;50.284;18.860;2023-12-20T06:57:29;29.30;;;17.70;;
62056;SDS011;48016;50.284;18.860;2023-12-20T06:59:56;29.10;;;17.90;;
62056;SDS011;48016;50.284;18.860;2023-12-20T07:02:24;30.40;;;18.90;;
62056;SDS011;48016;50.284;18.860;2023-12-20T07:04:50;28.50;;;18.80;;
62056;SDS011;48016;50.284;18.860;2023-12-20T07:07:17;28.80;;;18.30;;
62056;SDS011;48016;50.284;18.860;2023-12-20T07:09:43;30.60;;;17.90;;
62056;SDS011;48016;50.284;18.860;2023-12-20T07:12:10;33.10;;;19.60;;
62056;SDS011;48016;50.284;18.860;2023-12-20T07:14:37;33.10;;;20.80;;
62056;SDS011;48016;50.284;18.860;2023-12-20T07:17:03;33.50;;;20.50;;
62056;SDS011;48016;50.284;18.860;2023-12-20T07:19:30;38.30;;;21.40;;
62056;SDS011;48016;50.284;18.860;2023-12-20T07:21:56;38.60;;;20.20;;
62056;SDS011;48016;50.284;18.860;2023-12-20T07:24:23;34.30;;;21.50;;
62056;SDS011;48016;50.284;18.860;2023-12-20T07:26:49;38.60;;;21.80;;
62056;SDS011;48016;50.284;18.860;2023-12-20T07:29:17;34.70;;;20.70;;
62056;SDS011;48016;50.284;18.860;2023-12-20T07:31:43;31.70;;;19.50;;
62056;SDS011;48016;50.284;18.860;2023-12-20T07:34:10;34.00;;;20.20;;
62056;SDS011;48016;50.284;18.860;2023-12-20T07:36:36;37.10;;;21.50;;
62056;SDS011;48016;50.284;18.860;2023-12-20T07:39:03;38.00;;;20.60;;
62056;SDS011;48016;50.284;18.860;2023-12-20T07:41:29;34.50;;;20.20;;
62056;SDS011;48016;50.284;18.860;2023-12-20T07:43:56;35.90;;;20.80;;
62056;SDS011;48016;50.284;18.860;2023-12-20T07:46:23;33.90;;;20.00;;
62056;SDS011;48016;50.284;18.860;2023-12-20T07:48:49;34.10;;;18.70;;
62056;SDS011;48016;50.284;18.860;2023-12-20T07:51:16;29.00;;;17.20;;
62056;SDS011;48016;50.284;18.860;2023-12-20T07:53:43;31.70;;;17.70;;
62056;SDS011;48016;50.284;18.860;2023-12-20T07:56:16;29.00;;;17.40;;
62056;SDS011;48016;50.284;18.860;2023-12-20T07:58:44;27.70;;;17.30;;
62056;SDS011;48016;50.284;18.860;2023-12-20T08:01:11;30.20;;;17.40;;
62056;SDS011;48016;50.284;18.860;2023-12-20T08:03:38;26.40;;;15.90;;
62056;SDS011;48016;50.284;18.860;2023-12-20T08:06:05;28.20;;;16.70;;
62056;SDS011;48016;50.284;18.860;2023-12-20T08:08:31;27.50;;;17.20;;
62056;SDS011;48016;50.284;18.860;2023-12-20T08:10:58;27.20;;;16.90;;
62056;SDS011;48016;50.284;18.860;2023-12-20T08:13:26;27.90;;;16.40;;
62056;SDS011;48016;50.284;18.860;2023-12-20T08:15:53;27.50;;;17.20;;
62056;SDS011;48016;50.284;18.860;2023-12-20T08:18:20;34.30;;;16.50;;
62056;SDS011;48016;50.284;18.860;2023-12-20T08:20:46;27.40;;;16.80;;
62056;SDS011;48016;50.284;18.860;2023-12-20T08:25:41;30.50;;;17.20;;
62056;SDS011;48016;50.284;18.860;2023-12-20T08:28:07;30.50;;;18.00;;
62056;SDS011;48016;50.284;18.860;2023-12-20T08:30:34;29.70;;;17.20;;
62056;SDS011;48016;50.284;18.860;2023-12-20T08:33:01;34.20;;;18.40;;
62056;SDS011;48016;50.284;18.860;2023-12-20T08:35:28;26.90;;;16.70;;
62056;SDS011;48016;50.284;18.860;2023-12-20T08:37:54;25.00;;;15.20;;
62056;SDS011;48016;50.284;18.860;2023-12-20T08:40:21;26.10;;;17.00;;
62056;SDS011;48016;50.284;18.860;2023-12-20T08:42:48;31.60;;;18.60;;
62056;SDS011;48016;50.284;18.860;2023-12-20T08:45:14;32.60;;;18.40;;
62056;SDS011;48016;50.284;18.860;2023-12-20T08:47:41;27.40;;;17.70;;
62056;SDS011;48016;50.284;18.860;2023-12-20T08:50:08;31.60;;;19.10;;
62056;SDS011;48016;50.284;18.860;2023-12-20T08:52:35;29.10;;;18.20;;
62056;SDS011;48016;50.284;18.860;2023-12-20T08:55:01;31.00;;;18.70;;
62056;SDS011;48016;50.284;18.860;2023-12-20T08:57:28;30.60;;;18.30;;
62056;SDS011;48016;50.284;18.860;2023-12-20T08:59:55;28.40;;;17.80;;
62056;SDS011;48016;50.284;18.860;2023-12-20T09:02:21;29.90;;;18.60;;
62056;SDS011;48016;50.284;18.860;2023-12-20T09:04:48;28.90;;;16.80;;
62056;SDS011;48016;50.284;18.860;2023-12-20T09:07:21;27.60;;;16.70;;
62056;SDS011;48016;50.284;18.860;2023-12-20T09:09:51;25.50;;;16.40;;
62056;SDS011;48016;50.284;18.860;2023-12-20T09:12:19;27.40;;;17.60;;
62056;SDS011;48016;50.284;18.860;2023-12-20T09:14:46;27.60;;;16.20;;
62056;SDS011;48016;50.284;18.860;2023-12-20T09:19:42;28.50;;;17.20;;
62056;SDS011;48016;50.284;18.860;2023-12-20T09:22:12;27.80;;;16.60;;
62056;SDS011;48016;50.284;18.860;2023-12-20T09:24:39;25.40;;;17.00;;
62056;SDS011;48016;50.284;18.860;2023-12-20T09:27:05;27.10;;;17.80;;
62056;SDS011;48016;50.284;18.860;2023-12-20T09:29:32;25.00;;;15.80;;
62056;SDS011;48016;50.284;18.860;2023-12-20T09:31:59;26.00;;;16.90;;
62056;SDS011;48016;50.284;18.860;2023-12-20T09:34:25;28.50;;;15.90;;
62056;SDS011;48016;50.284;18.860;2023-12-20T09:36:53;24.10;;;15.40;;
62056;SDS011;48016;50.284;18.860;2023-12-20T09:39:20;20.50;;;12.80;;
62056;SDS011;48016;50.284;18.860;2023-12-20T09:41:59;19.30;;;12.80;;
62056;SDS011;48016;50.284;18.860;2023-12-20T09:44:27;20.60;;;13.40;;
62056;SDS011;48016;50.284;18.860;2023-12-20T09:46:55;17.60;;;11.90;;
62056;SDS011;48016;50.284;18.860;2023-12-20T09:49:23;18.50;;;12.50;;
62056;SDS011;48016;50.284;18.860;2023-12-20T09:51:50;21.70;;;13.10;;
62056;SDS011;48016;50.284;18.860;2023-12-20T09:54:18;20.80;;;13.40;;
62056;SDS011;48016;50.284;18.860;2023-12-20T09:56:44;20.90;;;13.80;;
62056;SDS011;48016;50.284;18.860;2023-12-20T09:59:11;19.10;;;12.50;;
62056;SDS011;48016;50.284;18.860;2023-12-20T10:01:38;18.90;;;12.30;;
62056;SDS011;48016;50.284;18.860;2023-12-20T10:04:06;20.20;;;13.20;;
62056;SDS011;48016;50.284;18.860;2023-12-20T10:06:42;19.20;;;12.70;;
62056;SDS011;48016;50.284;18.860;2023-12-20T10:09:09;21.90;;;13.70;;
62056;SDS011;48016;50.284;18.860;2023-12-20T10:14:04;21.70;;;14.40;;
62056;SDS011;48016;50.284;18.860;2023-12-20T10:18:59;22.00;;;13.70;;
62056;SDS011;48016;50.284;18.860;2023-12-20T10:21:26;23.90;;;15.30;;
62056;SDS011;48016;50.284;18.860;2023-12-20T10:23:53;26.60;;;15.80;;
62056;SDS011;48016;50.284;18.860;2023-12-20T10:28:59;26.20;;;15.10;;
62056;SDS011;48016;50.284;18.860;2023-12-20T10:31:27;20.30;;;13.70;;
62056;SDS011;48016;50.284;18.860;2023-12-20T10:33:55;22.30;;;13.40;;
62056;SDS011;48016;50.284;18.860;2023-12-20T10:36:26;21.30;;;14.00;;
62056;SDS011;48016;50.284;18.860;2023-12-20T10:38:54;19.80;;;12.70;;
62056;SDS011;48016;50.284;18.860;2023-12-20T10:41:32;21.90;;;12.80;;
62056;SDS011;48016;50.284;18.860;2023-12-20T10:44:00;19.80;;;13.00;;
62056;SDS011;48016;50.284;18.860;2023-12-20T10:46:29;19.60;;;12.70;;
62056;SDS011;48016;50.284;18.860;2023-12-20T10:48:56;21.20;;;13.70;;
62056;SDS011;48016;50.284;18.860;2023-12-20T10:51:23;19.50;;;13.20;;
62056;SDS011;48016;50.284;18.860;2023-12-20T10:53:52;21.40;;;13.90;;
62056;SDS011;48016;50.284;18.860;2023-12-20T10:56:21;17.20;;;12.50;;
62056;SDS011;48016;50.284;18.860;2023-12-20T10:58:49;23.30;;;12.60;;
62056;SDS011;48016;50.284;18.860;2023-12-20T11:01:17;21.50;;;13.30;;
62056;SDS011;48016;50.284;18.860;2023-12-20T11:03:48;22.90;;;14.20;;
62056;SDS011;48016;50.284;18.860;2023-12-20T11:06:36;24.00;;;15.30;;
62056;SDS011;48016;50.284;18.860;2023-12-20T11:09:17;24.30;;;15.30;;
62056;SDS011;48016;50.284;18.860;2023-12-20T11:14:41;26.70;;;16.50;;
62056;SDS011;48016;50.284;18.860;2023-12-20T11:17:12;23.10;;;15.90;;
62056;SDS011;48016;50.284;18.860;2023-12-20T11:20:03;26.00;;;15.40;;
62056;SDS011;48016;50.284;18.860;2023-12-20T11:22:31;24.30;;;15.10;;
62056;SDS011;48016;50.284;18.860;2023-12-20T11:27:36;25.00;;;14.80;;
62056;SDS011;48016;50.284;18.860;2023-12-20T11:30:06;23.10;;;14.60;;
62056;SDS011;48016;50.284;18.860;2023-12-20T11:32:35;23.50;;;14.90;;
62056;SDS011;48016;50.284;18.860;2023-12-20T11:37:35;23.70;;;14.90;;
62056;SDS011;48016;50.284;18.860;2023-12-20T11:40:05;20.20;;;14.00;;
62056;SDS011;48016;50.284;18.860;2023-12-20T11:42:33;24.50;;;15.00;;
62056;SDS011;48016;50.284;18.860;2023-12-20T11:45:04;23.40;;;14.10;;
62056;SDS011;48016;50.284;18.860;2023-12-20T11:47:31;21.90;;;14.40;;
62056;SDS011;48016;50.284;18.860;2023-12-20T11:49:58;25.50;;;14.70;;
62056;SDS011;48016;50.284;18.860;2023-12-20T11:52:26;22.80;;;14.20;;
62056;SDS011;48016;50.284;18.860;2023-12-20T11:54:53;21.80;;;13.60;;
62056;SDS011;48016;50.284;18.860;2023-12-20T11:57:19;22.10;;;12.80;;
62056;SDS011;48016;50.284;18.860;2023-12-20T11:59:46;23.90;;;13.60;;
62056;SDS011;48016;50.284;18.860;2023-12-20T12:02:13;21.10;;;13.80;;
62056;SDS011;48016;50.284;18.860;2023-12-20T12:04:42;22.70;;;14.10;;
62056;SDS011;48016;50.284;18.860;2023-12-20T12:07:09;21.20;;;13.50;;
62056;SDS011;48016;50.284;18.860;2023-12-20T12:09:35;23.60;;;14.00;;
62056;SDS011;48016;50.284;18.860;2023-12-20T12:12:02;23.90;;;13.90;;
62056;SDS011;48016;50.284;18.860;2023-12-20T12:14:29;18.80;;;12.90;;
62056;SDS011;48016;50.284;18.860;2023-12-20T12:16:56;19.10;;;12.40;;
62056;SDS011;48016;50.284;18.860;2023-12-20T12:19:23;19.80;;;12.20;;
62056;SDS011;48016;50.284;18.860;2023-12-20T12:21:50;21.00;;;12.20;;
62056;SDS011;48016;50.284;18.860;2023-12-20T12:24:20;22.00;;;12.30;;
62056;SDS011;48016;50.284;18.860;2023-12-20T12:26:51;20.00;;;12.60;;
62056;SDS011;48016;50.284;18.860;2023-12-20T12:29:18;18.90;;;10.90;;
62056;SDS011;48016;50.284;18.860;2023-12-20T12:31:44;19.80;;;10.80;;
62056;SDS011;48016;50.284;18.860;2023-12-20T12:34:11;14.70;;;9.80;;
62056;SDS011;48016;50.284;18.860;2023-12-20T12:36:37;15.90;;;9.10;;
62056;SDS011;48016;50.284;18.860;2023-12-20T12:39:05;16.10;;;9.40;;
62056;SDS011;48016;50.284;18.860;2023-12-20T12:41:32;14.50;;;8.10;;
62056;SDS011;48016;50.284;18.860;2023-12-20T12:43:58;14.10;;;9.40;;
62056;SDS011;48016;50.284;18.860;2023-12-20T12:46:25;16.10;;;8.20;;
62056;SDS011;48016;50.284;18.860;2023-12-20T12:48:52;15.90;;;8.20;;
62056;SDS011;48016;50.284;18.860;2023-12-20T12:51:18;13.90;;;8.10;;
62056;SDS011;48016;50.284;18.860;2023-12-20T12:53:45;16.00;;;9.00;;
62056;SDS011;48016;50.284;18.860;2023-12-20T12:56:12;15.00;;;8.90;;
62056;SDS011;48016;50.284;18.860;2023-12-20T12:58:40;16.60;;;8.90;;
62056;SDS011;48016;50.284;18.860;2023-12-20T13:01:06;14.80;;;8.50;;
62056;SDS011;48016;50.284;18.860;2023-12-20T13:03:35;16.90;;;10.30;;
62056;SDS011;48016;50.284;18.860;2023-12-20T13:06:02;15.80;;;10.10;;
62056;SDS011;48016;50.284;18.860;2023-12-20T13:08:29;21.40;;;12.60;;
62056;SDS011;48016;50.284;18.860;2023-12-20T13:10:55;21.00;;;13.00;;
62056;SDS011;48016;50.284;18.860;2023-12-20T13:13:24;22.90;;;13.80;;
62056;SDS011;48016;50.284;18.860;2023-12-20T13:15:51;25.30;;;14.90;;
62056;SDS011;48016;50.284;18.860;2023-12-20T13:18:21;25.30;;;15.20;;
62056;SDS011;48016;50.284;18.860;2023-12-20T13:20:49;26.90;;;14.90;;
62056;SDS011;48016;50.284;18.860;2023-12-20T13:23:15;23.20;;;14.80;;
62056;SDS011;48016;50.284;18.860;2023-12-20T13:25:44;23.80;;;14.50;;
62056;SDS011;48016;50.284;18.860;2023-12-20T13:28:14;26.00;;;14.90;;
62056;SDS011;48016;50.284;18.860;2023-12-20T13:30:40;24.40;;;15.80;;
62056;SDS011;48016;50.284;18.860;2023-12-20T13:33:07;24.50;;;16.00;;
62056;SDS011;48016;50.284;18.860;2023-12-20T13:35:34;26.90;;;16.50;;
62056;SDS011;48016;50.284;18.860;2023-12-20T13:38:00;24.60;;;15.70;;
62056;SDS011;48016;50.284;18.860;2023-12-20T13:40:27;25.50;;;16.20;;
62056;SDS011;48016;50.284;18.860;2023-12-20T13:42:54;28.50;;;17.10;;
62056;SDS011;48016;50.284;18.860;2023-12-20T13:45:21;28.50;;;17.70;;
62056;SDS011;48016;50.284;18.860;2023-12-20T13:47:48;31.30;;;18.30;;
62056;SDS011;48016;50.284;18.860;2023-12-20T13:50:15;29.50;;;17.10;;
62056;SDS011;48016;50.284;18.860;2023-12-20T13:52:42;29.40;;;17.80;;
62056;SDS011;48016;50.284;18.860;2023-12-20T13:55:08;31.80;;;16.80;;
62056;SDS011;48016;50.284;18.860;2023-12-20T13:57:35;29.70;;;17.50;;
62056;SDS011;48016;50.284;18.860;2023-12-20T14:00:04;29.60;;;17.30;;
62056;SDS011;48016;50.284;18.860;2023-12-20T14:04:57;28.20;;;18.00;;
62056;SDS011;48016;50.284;18.860;2023-12-20T14:07:24;31.50;;;19.40;;
62056;SDS011;48016;50.284;18.860;2023-12-20T14:09:51;30.40;;;18.00;;
62056;SDS011;48016;50.284;18.860;2023-12-20T14:12:17;34.00;;;19.20;;
62056;SDS011;48016;50.284;18.860;2023-12-20T14:14:44;35.10;;;20.00;;
62056;SDS011;48016;50.284;18.860;2023-12-20T14:17:11;32.60;;;18.80;;
62056;SDS011;48016;50.284;18.860;2023-12-20T14:19:37;33.20;;;18.90;;
62056;SDS011;48016;50.284;18.860;2023-12-20T14:22:04;29.80;;;18.40;;
62056;SDS011;48016;50.284;18.860;2023-12-20T14:24:30;30.00;;;17.60;;
62056;SDS011;48016;50.284;18.860;2023-12-20T14:26:57;30.20;;;17.60;;
62056;SDS011;48016;50.284;18.860;2023-12-20T14:29:24;32.30;;;19.10;;
62056;SDS011;48016;50.284;18.860;2023-12-20T14:31:51;33.50;;;20.20;;
62056;SDS011;48016;50.284;18.860;2023-12-20T14:34:17;31.10;;;18.30;;
62056;SDS011;48016;50.284;18.860;2023-12-20T14:36:44;29.90;;;18.10;;